createdAt,value
2023-02-22T00:00:32.331Z,97.8
2023-02-22T00:01:49.436Z,97.8
2023-02-22T00:03:06.541Z,97.8
2023-02-22T00:04:23.646Z,97.8
2023-02-22T00:05:40.752Z,97.8
2023-02-22T00:06:57.857Z,97.7
2023-02-22T00:08:14.962Z,97.7
2023-02-22T00:09:32.068Z,97.7
2023-02-22T00:10:48.189Z,97.7
2023-02-22T00:12:05.294Z,97.8
2023-02-22T00:13:22.399Z,97.8
2023-02-22T00:14:39.504Z,97.8
2023-02-22T00:15:56.610Z,97.8
2023-02-22T00:17:13.715Z,97.8
2023-02-22T00:18:30.820Z,97.8
2023-02-22T00:19:46.947Z,97.5
2023-02-22T00:21:03.068Z,97.7
2023-02-22T00:22:20.174Z,97.5
2023-02-22T00:23:37.279Z,97.4
2023-02-22T00:24:53.406Z,97.4
2023-02-22T00:26:09.527Z,97.5
2023-02-22T00:27:26.632Z,97.7
2023-02-22T00:28:43.738Z,97.5
2023-02-22T00:30:00.843Z,97.6
2023-02-22T00:31:17.948Z,97.7
2023-02-22T00:32:35.053Z,97.8
2023-02-22T00:33:52.159Z,97.9
2023-02-22T00:35:09.264Z,97.7
2023-02-22T00:36:26.369Z,97.7
2023-02-22T00:37:43.475Z,97.5
2023-02-22T00:39:00.580Z,97.6
2023-02-22T00:40:17.685Z,97.5
2023-02-22T00:41:34.790Z,97.4
2023-02-22T00:42:50.912Z,97.7
2023-02-22T00:44:08.017Z,97.7
2023-02-22T00:45:25.123Z,97.6
2023-02-22T00:46:42.228Z,97.7
2023-02-22T00:47:59.333Z,97.8
2023-02-22T00:49:16.438Z,97.8
2023-02-22T00:50:33.543Z,97.8
2023-02-22T00:51:49.670Z,97.4
2023-02-22T00:53:05.791Z,97.5
2023-02-22T00:54:21.918Z,97.6
2023-02-22T00:55:38.039Z,97.5
2023-02-22T00:56:55.144Z,97.6
2023-02-22T00:58:12.249Z,97.3
2023-02-22T00:59:29.354Z,97.1
2023-02-22T01:00:46.460Z,96.8
2023-02-22T01:02:03.565Z,96.6
2023-02-22T01:03:20.670Z,96.4
2023-02-22T01:04:37.775Z,96.7
2023-02-22T01:05:54.880Z,96.9
2023-02-22T01:07:11.986Z,96.9
2023-02-22T01:08:29.091Z,96.4
2023-02-22T01:09:46.196Z,96.2
2023-02-22T01:11:03.302Z,96.3
2023-02-22T01:12:19.423Z,96
2023-02-22T01:13:36.528Z,96
2023-02-22T01:14:53.633Z,96.1
2023-02-22T01:16:10.738Z,96.2
2023-02-22T01:17:27.844Z,96.5
2023-02-22T01:18:44.947Z,96.5
2023-02-22T01:20:02.052Z,96.8
2023-02-22T01:21:19.157Z,96.9
2023-02-22T01:22:36.263Z,96.9
2023-02-22T01:23:53.368Z,96.9
2023-02-22T01:25:10.473Z,96.8
2023-02-22T01:26:27.579Z,96.9
2023-02-22T01:27:44.682Z,97
2023-02-22T01:29:00.803Z,97.1
2023-02-22T01:30:17.908Z,97.1
2023-02-22T01:31:35.013Z,97
2023-02-22T01:32:52.119Z,97
2023-02-22T01:34:09.224Z,97
2023-02-22T01:35:26.330Z,96.9
2023-02-22T01:36:43.435Z,97
2023-02-22T01:38:00.540Z,97
2023-02-22T01:39:17.645Z,97.1
2023-02-22T01:40:34.750Z,97.1
2023-02-22T01:41:51.855Z,97
2023-02-22T01:43:08.961Z,96.6
2023-02-22T01:44:26.066Z,96.7
2023-02-22T01:45:42.187Z,96.4
2023-02-22T01:46:59.293Z,96.4
2023-02-22T01:48:16.398Z,96.4
2023-02-22T01:49:33.503Z,96.1
2023-02-22T01:50:50.608Z,96.3
2023-02-22T01:52:07.713Z,96.3
2023-02-22T01:53:24.819Z,96.1
2023-02-22T01:54:41.924Z,95.8
2023-02-22T01:55:59.030Z,96.1
2023-02-22T01:57:16.135Z,96.8
2023-02-22T01:58:33.240Z,96.8
2023-02-22T01:59:50.345Z,96.4
2023-02-22T02:01:07.450Z,96.4
2023-02-22T02:02:23.572Z,96.4
2023-02-22T02:03:40.677Z,96.2
2023-02-22T02:04:57.782Z,96.3
2023-02-22T02:06:14.887Z,96.4
2023-02-22T02:07:31.993Z,96.4
2023-02-22T02:08:49.099Z,95.9
2023-02-22T02:10:06.204Z,96
2023-02-22T02:11:23.309Z,96.4
2023-02-22T02:12:40.414Z,96.3
2023-02-22T02:13:57.519Z,96.2
2023-02-22T02:15:14.625Z,96.1
2023-02-22T02:16:31.730Z,95.9
2023-02-22T02:17:48.835Z,96.2
2023-02-22T02:19:04.957Z,96
2023-02-22T02:20:22.062Z,95.7
2023-02-22T02:21:39.167Z,95.9
2023-02-22T02:22:56.273Z,95.9
2023-02-22T02:24:13.378Z,96.3
2023-02-22T02:25:30.483Z,96.4
2023-02-22T02:26:47.588Z,96.3
2023-02-22T02:28:04.693Z,96.2
2023-02-22T02:29:21.799Z,96.2
2023-02-22T02:30:38.904Z,96.1
2023-02-22T02:31:56.009Z,96.4
2023-02-22T02:33:13.114Z,96.5
2023-02-22T02:34:30.219Z,96.3
2023-02-22T02:35:46.340Z,96.3
2023-02-22T02:37:03.445Z,96
2023-02-22T02:38:20.551Z,96
2023-02-22T02:39:37.656Z,96
2023-02-22T02:40:54.761Z,96.2
2023-02-22T02:42:11.866Z,96.2
2023-02-22T02:43:28.971Z,96.3
2023-02-22T02:44:46.076Z,96.2
2023-02-22T02:46:03.182Z,96.2
2023-02-22T02:47:20.287Z,96.2
2023-02-22T02:48:37.393Z,96.4
2023-02-22T02:49:54.498Z,96.4
2023-02-22T02:51:10.619Z,96.5
2023-02-22T02:52:27.725Z,96.4
2023-02-22T02:53:44.830Z,96.3
2023-02-22T02:55:01.935Z,96.3
2023-02-22T02:56:19.040Z,96.3
2023-02-22T02:57:36.145Z,95.9
2023-02-22T02:58:53.250Z,95.9
2023-02-22T03:00:10.355Z,96.2
2023-02-22T03:01:27.461Z,96.2
2023-02-22T03:02:44.566Z,96.3
2023-02-22T03:04:01.671Z,96.3
2023-02-22T03:05:18.776Z,96.3
2023-02-22T03:06:35.882Z,96.5
2023-02-22T03:07:52.003Z,96.2
2023-02-22T03:09:09.108Z,96.1
2023-02-22T03:10:26.213Z,96
2023-02-22T03:11:43.318Z,96
2023-02-22T03:13:00.424Z,96.5
2023-02-22T03:14:17.529Z,96.3
2023-02-22T03:15:34.634Z,96.6
2023-02-22T03:16:51.739Z,96.6
2023-02-22T03:18:08.844Z,96.9
2023-02-22T03:19:25.949Z,96.9
2023-02-22T03:20:43.055Z,97.1
2023-02-22T03:22:00.160Z,97
2023-02-22T03:23:17.263Z,96.9
2023-02-22T03:24:33.384Z,96.8
2023-02-22T03:25:50.490Z,96.6
2023-02-22T03:27:07.595Z,96.3
2023-02-22T03:28:24.700Z,96.4
2023-02-22T03:29:41.805Z,96.5
2023-02-22T03:30:58.910Z,96.4
2023-02-22T03:32:15.037Z,96.4
2023-02-22T03:33:31.158Z,96.4
2023-02-22T03:34:48.263Z,96.4
2023-02-22T03:36:05.368Z,96.3
2023-02-22T03:37:21.495Z,96.2
2023-02-22T03:38:37.616Z,95.8
2023-02-22T03:39:54.721Z,95.9
2023-02-22T03:41:11.827Z,95.3
2023-02-22T03:42:28.932Z,95.3
2023-02-22T03:43:46.037Z,95.2
2023-02-22T03:45:03.142Z,95.2
2023-02-22T03:46:20.247Z,95.6
2023-02-22T03:47:37.353Z,95.3
2023-02-22T03:48:54.458Z,95.8
2023-02-22T03:50:11.563Z,96
2023-02-22T03:51:28.669Z,95.8
2023-02-22T03:52:45.774Z,95.8
2023-02-22T03:54:02.879Z,96
2023-02-22T03:55:19.001Z,95.9
2023-02-22T03:56:36.106Z,95.9
2023-02-22T03:57:53.211Z,95.7
2023-02-22T03:59:10.317Z,95.8
2023-02-22T04:00:27.422Z,95.8
2023-02-22T04:01:44.527Z,95.8
2023-02-22T04:03:01.633Z,96
2023-02-22T04:04:17.759Z,96
2023-02-22T04:05:33.881Z,96.2
2023-02-22T04:06:50.007Z,96
2023-02-22T04:08:06.129Z,95.8
2023-02-22T04:09:23.234Z,95.8
2023-02-22T04:10:40.339Z,95.9
2023-02-22T04:11:57.444Z,95.9
2023-02-22T04:13:14.550Z,96
2023-02-22T04:14:31.655Z,96
2023-02-22T04:15:48.761Z,95.9
2023-02-22T04:17:05.866Z,96
2023-02-22T04:18:22.971Z,96.2
2023-02-22T04:19:40.076Z,96.2
2023-02-22T04:20:57.182Z,96.1
2023-02-22T04:22:14.287Z,96.3
2023-02-22T04:23:31.392Z,96.1
2023-02-22T04:24:47.513Z,95.9
2023-02-22T04:26:04.618Z,94.8
2023-02-22T04:27:21.723Z,95.5
2023-02-22T04:28:38.829Z,95.2
2023-02-22T04:29:55.934Z,94.5
2023-02-22T04:31:13.039Z,94.5
2023-02-22T04:32:30.142Z,95.4
2023-02-22T04:33:46.269Z,95.6
2023-02-22T04:35:02.390Z,95.4
2023-02-22T04:36:19.496Z,95.3
2023-02-22T04:37:35.622Z,94.9
2023-02-22T04:38:51.743Z,95
2023-02-22T04:40:08.849Z,94.7
2023-02-22T04:41:25.954Z,95.1
2023-02-22T04:42:43.059Z,95.2
2023-02-22T04:44:00.164Z,95.2
2023-02-22T04:45:17.269Z,94.8
2023-02-22T04:46:34.375Z,94.9
2023-02-22T04:47:51.480Z,95.1
2023-02-22T04:49:08.585Z,95.1
2023-02-22T04:50:25.690Z,94.7
2023-02-22T04:51:42.795Z,94.7
2023-02-22T04:52:59.900Z,94.2
2023-02-22T04:54:17.005Z,94
2023-02-22T04:55:33.127Z,94
2023-02-22T04:56:50.232Z,94.3
2023-02-22T04:58:07.338Z,94.7
2023-02-22T04:59:24.443Z,94.9
2023-02-22T05:00:41.548Z,94.7
2023-02-22T05:01:58.653Z,94.7
2023-02-22T05:03:15.758Z,94.7
2023-02-22T05:04:31.885Z,94.5
2023-02-22T05:05:48.006Z,94.5
2023-02-22T05:07:05.111Z,94.8
2023-02-22T05:08:22.216Z,94.4
2023-02-22T05:09:38.343Z,94.2
2023-02-22T05:10:54.464Z,94.4
2023-02-22T05:12:11.570Z,94.7
2023-02-22T05:13:28.675Z,94.4
2023-02-22T05:14:45.780Z,94.5
2023-02-22T05:16:02.885Z,94.5
2023-02-22T05:17:19.990Z,94.7
2023-02-22T05:18:37.096Z,94.9
2023-02-22T05:19:54.201Z,94.5
2023-02-22T05:21:11.306Z,94.7
2023-02-22T05:22:28.412Z,94.4
2023-02-22T05:23:45.517Z,94.1
2023-02-22T05:25:02.622Z,94.3
2023-02-22T05:26:19.727Z,93.9
2023-02-22T05:27:35.849Z,93.8
2023-02-22T05:28:52.954Z,93.9
2023-02-22T05:30:10.060Z,94.1
2023-02-22T05:31:27.165Z,94.4
2023-02-22T05:32:44.270Z,94.3
2023-02-22T05:34:01.376Z,94.7
2023-02-22T05:35:18.482Z,94.3
2023-02-22T05:36:34.608Z,94
2023-02-22T05:37:50.730Z,94.1
2023-02-22T05:39:06.856Z,93.8
2023-02-22T05:40:22.978Z,94.1
2023-02-22T05:41:40.083Z,94.1
2023-02-22T05:42:57.188Z,94.3
2023-02-22T05:44:14.293Z,94.4
2023-02-22T05:45:31.398Z,94.4
2023-02-22T05:46:48.503Z,94.6
2023-02-22T05:48:05.609Z,94.6
2023-02-22T05:49:22.715Z,93.8
2023-02-22T05:50:39.820Z,93.8
2023-02-22T05:51:56.925Z,93.8
2023-02-22T05:53:14.030Z,93.4
2023-02-22T05:54:31.136Z,93.7
2023-02-22T05:55:48.241Z,93.7
2023-02-22T05:57:04.362Z,93.5
2023-02-22T05:58:21.467Z,93.4
2023-02-22T05:59:38.572Z,93.7
2023-02-22T06:00:55.678Z,93.6
2023-02-22T06:02:12.783Z,93.3
2023-02-22T06:03:29.888Z,93.1
2023-02-22T06:04:46.993Z,92.9
2023-02-22T06:06:03.120Z,93
2023-02-22T06:07:19.241Z,93.3
2023-02-22T06:08:36.346Z,93.6
2023-02-22T06:09:53.451Z,93.6
2023-02-22T06:11:09.578Z,93.8
2023-02-22T06:12:26.683Z,93.7
2023-02-22T06:13:42.804Z,94
2023-02-22T06:14:59.907Z,94
2023-02-22T06:16:17.013Z,94.1
2023-02-22T06:17:34.118Z,94.3
2023-02-22T06:18:51.223Z,94.3
2023-02-22T06:20:08.328Z,94.3
2023-02-22T06:21:25.434Z,94
2023-02-22T06:22:42.539Z,93.7
2023-02-22T06:23:59.644Z,93.2
2023-02-22T06:25:16.750Z,93.3
2023-02-22T06:26:33.855Z,93.4
2023-02-22T06:27:50.962Z,93.2
2023-02-22T06:29:08.067Z,92.9
2023-02-22T06:30:24.188Z,92.7
2023-02-22T06:31:41.294Z,93
2023-02-22T06:32:58.399Z,92.7
2023-02-22T06:34:15.504Z,93
2023-02-22T06:35:32.609Z,93.4
2023-02-22T06:36:49.715Z,93.8
2023-02-22T06:38:06.820Z,93.7
2023-02-22T06:39:23.926Z,93.9
2023-02-22T06:40:41.031Z,93.6
2023-02-22T06:41:58.136Z,93.2
2023-02-22T06:44:32.347Z,93.3
2023-02-22T06:45:49.452Z,93.2
2023-02-22T06:47:05.574Z,93.4
2023-02-22T06:48:22.679Z,93.2
2023-02-22T06:49:39.785Z,93.4
2023-02-22T06:50:56.890Z,93.5
2023-02-22T06:52:13.995Z,93.6
2023-02-22T06:53:31.101Z,93.9
2023-02-22T06:54:48.206Z,94.4
2023-02-22T06:56:05.311Z,94.4
2023-02-22T06:57:22.417Z,93.7
2023-02-22T06:58:39.522Z,93.9
2023-02-22T06:59:56.628Z,93.7
2023-02-22T07:01:13.733Z,93.6
2023-02-22T07:02:30.838Z,93.5
2023-02-22T07:03:46.960Z,93.1
2023-02-22T07:05:04.065Z,92.8
2023-02-22T07:06:21.171Z,92.7
2023-02-22T07:07:38.276Z,91.9
2023-02-22T07:08:54.397Z,92
2023-02-22T07:10:11.503Z,92.1
2023-02-22T07:11:28.608Z,92
2023-02-22T07:12:45.714Z,92.1
2023-02-22T07:14:02.819Z,92.7
2023-02-22T07:15:19.924Z,92.1
2023-02-22T07:16:37.030Z,91.6
2023-02-22T07:17:54.135Z,92
2023-02-22T07:19:11.240Z,91.8
2023-02-22T07:20:28.345Z,91.9
2023-02-22T07:21:44.472Z,92.3
2023-02-22T07:23:00.593Z,92.3
2023-02-22T07:24:16.720Z,91.5
2023-02-22T07:25:32.841Z,91.1
2023-02-22T07:26:49.947Z,91.4
2023-02-22T07:28:07.052Z,91
2023-02-22T07:29:24.158Z,91.6
2023-02-22T07:30:41.263Z,91.4
2023-02-22T07:31:58.368Z,91.1
2023-02-22T07:33:15.474Z,90.5
2023-02-22T07:34:32.579Z,90.4
2023-02-22T07:35:49.684Z,90.3
2023-02-22T07:37:06.789Z,90.1
2023-02-22T07:38:23.895Z,90.8
2023-02-22T07:39:41.000Z,90.9
2023-02-22T07:40:58.106Z,91.1
2023-02-22T07:42:15.211Z,91.4
2023-02-22T07:43:31.332Z,92
2023-02-22T07:44:48.438Z,92.2
2023-02-22T07:46:05.543Z,92.5
2023-02-22T07:47:22.648Z,92.9
2023-02-22T07:48:39.753Z,92.5
2023-02-22T07:49:56.859Z,91.7
2023-02-22T07:51:13.964Z,92.1
2023-02-22T07:52:31.069Z,92.4
2023-02-22T07:53:48.174Z,92
2023-02-22T07:55:05.279Z,91.5
2023-02-22T07:56:22.384Z,91.7
2023-02-22T07:57:39.490Z,91.2
2023-02-22T07:58:56.595Z,91.7
2023-02-22T08:00:12.716Z,91.7
2023-02-22T08:01:29.821Z,91.4
2023-02-22T08:02:46.926Z,91.1
2023-02-22T08:04:04.031Z,90.5
2023-02-22T08:05:21.136Z,90.2
2023-02-22T08:06:38.241Z,89.8
2023-02-22T08:07:55.346Z,89.3
2023-02-22T08:09:12.451Z,89.2
2023-02-22T08:10:29.555Z,88
2023-02-22T08:11:46.661Z,87.7
2023-02-22T08:13:03.766Z,88.2
2023-02-22T08:14:20.871Z,88
2023-02-22T08:15:37.975Z,87.4
2023-02-22T08:16:54.096Z,87.7
2023-02-22T08:18:11.201Z,87.8
2023-02-22T08:19:28.306Z,88
2023-02-22T08:20:45.411Z,87.3
2023-02-22T08:22:02.516Z,87.5
2023-02-22T08:23:19.621Z,87.7
2023-02-22T08:24:36.726Z,88
2023-02-22T08:25:53.832Z,88.5
2023-02-22T08:27:10.936Z,88.7
2023-02-22T08:28:28.041Z,89.1
2023-02-22T08:29:45.146Z,88.8
2023-02-22T08:31:02.251Z,88.4
2023-02-22T08:33:35.482Z,88.7
2023-02-22T08:34:51.608Z,89
2023-02-22T08:36:07.729Z,89.2
2023-02-22T08:37:24.835Z,88.6
2023-02-22T08:38:40.961Z,88.6
2023-02-22T08:39:57.082Z,88.7
2023-02-22T08:41:14.187Z,88.3
2023-02-22T08:42:31.292Z,88.3
2023-02-22T08:43:48.396Z,88.4
2023-02-22T08:45:05.501Z,88.4
2023-02-22T08:46:22.606Z,87.7
2023-02-22T08:47:39.711Z,86.7
2023-02-22T08:48:56.816Z,85.8
2023-02-22T08:50:13.921Z,86.1
2023-02-22T08:51:31.026Z,87
2023-02-22T08:52:48.131Z,87.2
2023-02-22T08:54:05.236Z,87.1
2023-02-22T08:55:22.341Z,86.3
2023-02-22T08:56:38.462Z,86.4
2023-02-22T08:57:55.566Z,86.5
2023-02-22T08:59:12.671Z,86.8
2023-02-22T09:00:29.776Z,86.8
2023-02-22T09:01:46.881Z,86.6
2023-02-22T09:03:03.986Z,86.9
2023-02-22T09:04:21.091Z,87.2
2023-02-22T09:05:37.217Z,86.2
2023-02-22T09:06:53.338Z,85.4
2023-02-22T09:08:10.443Z,85.3
2023-02-22T09:09:27.548Z,85.7
2023-02-22T09:10:43.674Z,85.7
2023-02-22T09:11:59.795Z,86.3
2023-02-22T09:13:16.899Z,85.6
2023-02-22T09:14:34.004Z,85.4
2023-02-22T09:15:51.109Z,85.5
2023-02-22T09:17:08.214Z,85.1
2023-02-22T09:18:25.319Z,84.9
2023-02-22T09:19:42.423Z,84.5
2023-02-22T09:20:59.528Z,84.7
2023-02-22T09:22:16.633Z,85
2023-02-22T09:23:33.738Z,84.8
2023-02-22T09:24:50.842Z,84.4
2023-02-22T09:26:07.947Z,83.8
2023-02-22T09:27:25.052Z,83.3
2023-02-22T09:28:41.173Z,83.2
2023-02-22T09:29:58.277Z,82.3
2023-02-22T09:31:15.382Z,82.5
2023-02-22T09:32:32.487Z,82.1
2023-02-22T09:33:49.592Z,81.3
2023-02-22T09:35:06.697Z,81.1
2023-02-22T09:36:23.801Z,81.2
2023-02-22T09:37:39.927Z,81.6
2023-02-22T09:38:56.048Z,80.8
2023-02-22T09:40:12.174Z,81.4
2023-02-22T09:41:28.294Z,81.8
2023-02-22T09:42:45.399Z,82
2023-02-22T09:44:02.504Z,82.2
2023-02-22T09:45:19.608Z,82.5
2023-02-22T09:46:36.712Z,81.6
2023-02-22T09:47:53.817Z,81.8
2023-02-22T09:49:10.921Z,81.4
2023-02-22T09:50:28.026Z,81.4
2023-02-22T09:51:45.130Z,81.9
2023-02-22T09:53:02.235Z,82.3
2023-02-22T09:54:19.339Z,82.8
2023-02-22T09:55:36.444Z,82.9
2023-02-22T09:56:53.548Z,82.9
2023-02-22T09:58:09.669Z,82.2
2023-02-22T09:59:26.774Z,81.6
2023-02-22T10:00:43.878Z,81.9
2023-02-22T10:02:00.984Z,82.2
2023-02-22T10:03:18.089Z,82
2023-02-22T10:04:35.194Z,82.3
2023-02-22T10:05:52.299Z,82.7
2023-02-22T10:07:09.403Z,82.6
2023-02-22T10:08:26.508Z,82.2
2023-02-22T10:09:43.612Z,82.7
2023-02-22T10:11:00.717Z,83.2
2023-02-22T10:12:17.822Z,83
2023-02-22T10:13:34.927Z,82.6
2023-02-22T10:14:51.047Z,82.5
2023-02-22T10:16:08.152Z,82.3
2023-02-22T10:17:25.257Z,82.1
2023-02-22T10:18:42.362Z,82
2023-02-22T10:19:59.467Z,81.3
2023-02-22T10:21:16.571Z,80.6
2023-02-22T10:22:33.676Z,79.8
2023-02-22T10:23:50.781Z,79.4
2023-02-22T10:25:07.886Z,79.3
2023-02-22T10:26:24.990Z,79.4
2023-02-22T10:27:42.095Z,79.7
2023-02-22T10:28:59.200Z,79.7
2023-02-22T10:30:16.305Z,79.9
2023-02-22T10:31:32.426Z,79.9
2023-02-22T10:32:49.531Z,79.4
2023-02-22T10:34:06.635Z,79.3
2023-02-22T10:35:23.740Z,79.9
2023-02-22T10:36:40.845Z,79.7
2023-02-22T10:37:57.949Z,79.8
2023-02-22T10:39:15.055Z,79.2
2023-02-22T10:40:32.159Z,78.6
2023-02-22T10:41:49.264Z,78.1
2023-02-22T10:43:06.369Z,78.7
2023-02-22T10:44:23.473Z,78.8
2023-02-22T10:45:40.578Z,79
2023-02-22T10:46:57.682Z,78.8
2023-02-22T10:48:13.803Z,78.8
2023-02-22T10:49:30.908Z,79
2023-02-22T10:50:48.013Z,79.2
2023-02-22T10:52:05.118Z,77.7
2023-02-22T10:53:22.222Z,77.9
2023-02-22T10:54:39.327Z,77.9
2023-02-22T10:55:56.432Z,76.9
2023-02-22T10:57:13.536Z,76.9
2023-02-22T10:58:30.642Z,76
2023-02-22T10:59:46.768Z,75.8
2023-02-22T11:01:02.889Z,76
2023-02-22T11:02:19.015Z,76.4
2023-02-22T11:03:35.135Z,76.5
2023-02-22T11:04:52.240Z,76.7
2023-02-22T11:06:09.344Z,76.6
2023-02-22T11:07:26.449Z,76.3
2023-02-22T11:08:43.553Z,75.2
2023-02-22T11:10:00.657Z,75.2
2023-02-22T11:11:17.761Z,74.4
2023-02-22T11:12:34.865Z,73.8
2023-02-22T11:13:51.969Z,74.4
2023-02-22T11:15:09.073Z,74
2023-02-22T11:16:26.178Z,73.6
2023-02-22T11:17:43.282Z,73
2023-02-22T11:19:00.386Z,72.8
2023-02-22T11:21:33.609Z,72.6
2023-02-22T11:22:50.713Z,71.7
2023-02-22T11:24:07.818Z,70.9
2023-02-22T11:25:24.922Z,70.7
2023-02-22T11:26:41.042Z,70.3
2023-02-22T11:27:58.147Z,69.8
2023-02-22T11:29:15.252Z,69.8
2023-02-22T11:30:32.357Z,70.1
2023-02-22T11:31:49.461Z,69.8
2023-02-22T11:33:06.565Z,70
2023-02-22T11:34:23.669Z,69.7
2023-02-22T11:35:40.774Z,69.9
2023-02-22T11:36:57.878Z,70.3
2023-02-22T11:38:14.003Z,69.8
2023-02-22T11:39:30.124Z,69.1
2023-02-22T11:40:46.250Z,69.1
2023-02-22T11:42:02.370Z,69.1
2023-02-22T11:43:19.475Z,68.9
2023-02-22T11:44:36.579Z,68.5
2023-02-22T11:45:53.684Z,68.7
2023-02-22T11:47:10.788Z,68.8
2023-02-22T11:48:27.893Z,68.8
2023-02-22T11:49:44.997Z,69.2
2023-02-22T11:51:02.102Z,69.4
2023-02-22T11:52:19.206Z,69
2023-02-22T11:53:36.310Z,69.1
2023-02-22T11:54:53.415Z,68.4
2023-02-22T11:56:10.520Z,68.1
2023-02-22T11:57:27.624Z,67.3
2023-02-22T11:58:43.745Z,66.7
2023-02-22T12:00:00.849Z,67.2
2023-02-22T12:01:17.954Z,67.5
2023-02-22T12:02:35.058Z,67
2023-02-22T12:03:52.163Z,65.8
2023-02-22T12:05:09.267Z,64.3
2023-02-22T12:06:26.372Z,63.8
2023-02-22T12:07:43.476Z,63.4
2023-02-22T12:09:00.581Z,62.2
2023-02-22T12:10:17.683Z,61.3
2023-02-22T12:11:34.788Z,61.3
2023-02-22T12:12:51.892Z,61.7
2023-02-22T12:14:08.996Z,61.7
2023-02-22T12:15:25.122Z,61.7
2023-02-22T12:16:41.242Z,60.3
2023-02-22T12:17:58.347Z,60.5
2023-02-22T12:19:14.472Z,61.5
2023-02-22T12:20:30.593Z,60.4
2023-02-22T12:21:47.697Z,59.6
2023-02-22T12:23:04.801Z,58.7
2023-02-22T12:24:21.906Z,59.4
2023-02-22T12:25:39.010Z,59.3
2023-02-22T12:26:56.114Z,59.3
2023-02-22T12:28:13.218Z,59.5
2023-02-22T12:29:30.322Z,58.6
2023-02-22T12:30:47.427Z,58.6
2023-02-22T12:32:04.531Z,56.8
2023-02-22T12:33:21.635Z,57.7
2023-02-22T12:34:38.740Z,58.6
2023-02-22T12:35:55.844Z,58.1
2023-02-22T12:37:11.964Z,58.2
2023-02-22T12:38:29.068Z,59.1
2023-02-22T12:39:46.173Z,59.2
2023-02-22T12:41:03.277Z,58.6
2023-02-22T12:42:20.381Z,58.2
2023-02-22T12:43:37.486Z,58.4
2023-02-22T12:44:54.590Z,58.7
2023-02-22T12:46:11.694Z,59.1
2023-02-22T12:47:28.798Z,60
2023-02-22T12:48:45.902Z,60.7
2023-02-22T12:50:03.006Z,60
2023-02-22T12:51:20.111Z,60
2023-02-22T12:52:37.215Z,60.6
2023-02-22T12:53:53.335Z,61.1
2023-02-22T12:55:09.461Z,61.5
2023-02-22T12:56:25.581Z,62.6
2023-02-22T12:57:41.707Z,63.4
2023-02-22T12:58:57.827Z,63
2023-02-22T13:00:14.932Z,63.5
2023-02-22T13:01:32.036Z,63.7
2023-02-22T13:02:49.140Z,63.9
2023-02-22T13:04:06.244Z,63.8
2023-02-22T13:05:23.348Z,63.7
2023-02-22T13:06:40.453Z,63.6
2023-02-22T13:07:57.557Z,63.6
2023-02-22T13:09:14.661Z,63.6
2023-02-22T13:10:31.766Z,63.6
2023-02-22T13:11:48.870Z,63.7
2023-02-22T13:13:05.974Z,63.4
2023-02-22T13:14:23.079Z,63.9
2023-02-22T13:15:39.199Z,63.7
2023-02-22T13:16:56.304Z,63.8
2023-02-22T13:18:13.408Z,63.4
2023-02-22T13:19:30.512Z,63.6
2023-02-22T13:20:47.617Z,63.5
2023-02-22T13:22:04.721Z,63.8
2023-02-22T13:23:21.826Z,64.2
2023-02-22T13:24:37.952Z,64.4
2023-02-22T13:25:54.072Z,64.8
2023-02-22T13:27:11.177Z,64.6
2023-02-22T13:28:28.281Z,64.2
2023-02-22T13:29:44.407Z,64.4
2023-02-22T13:31:00.528Z,63.6
2023-02-22T13:32:17.632Z,64.4
2023-02-22T13:33:34.737Z,65.1
2023-02-22T13:34:51.842Z,65.4
2023-02-22T13:36:08.947Z,64.8
2023-02-22T13:37:26.052Z,64.2
2023-02-22T13:38:43.156Z,64.2
2023-02-22T13:40:00.261Z,64.5
2023-02-22T13:41:17.365Z,64.3
2023-02-22T13:42:34.470Z,64.5
2023-02-22T13:43:51.574Z,64.9
2023-02-22T13:45:08.679Z,64.7
2023-02-22T13:46:25.783Z,64.8
2023-02-22T13:47:41.904Z,64.2
2023-02-22T13:48:59.009Z,64.4
2023-02-22T13:50:16.113Z,63.8
2023-02-22T13:51:33.218Z,63.7
2023-02-22T13:52:50.322Z,63.6
2023-02-22T13:54:07.427Z,63.6
2023-02-22T13:55:24.531Z,63.8
2023-02-22T13:56:41.635Z,64.1
2023-02-22T13:57:58.740Z,64.9
2023-02-22T13:59:15.845Z,64.8
2023-02-22T14:00:32.949Z,65.4
2023-02-22T14:01:50.054Z,65.6
2023-02-22T14:03:07.159Z,65
2023-02-22T14:04:23.280Z,65
2023-02-22T14:05:40.384Z,65
2023-02-22T14:06:57.489Z,64.8
2023-02-22T14:08:14.593Z,65.2
2023-02-22T14:09:31.698Z,65.4
2023-02-22T14:10:48.803Z,65.4
2023-02-22T14:12:04.929Z,65.3
2023-02-22T14:13:21.049Z,65.4
2023-02-22T14:14:37.175Z,65.5
2023-02-22T14:15:53.295Z,65.8
2023-02-22T14:17:10.400Z,65.5
2023-02-22T14:18:27.504Z,65.6
2023-02-22T14:19:44.609Z,65.6
2023-02-22T14:21:01.713Z,65.4
2023-02-22T14:22:18.818Z,65.3
2023-02-22T14:23:35.922Z,65.6
2023-02-22T14:24:53.028Z,65.7
2023-02-22T14:26:10.132Z,65.7
2023-02-22T14:27:27.237Z,66.3
2023-02-22T14:28:44.341Z,66.2
2023-02-22T14:30:01.446Z,66
2023-02-22T14:31:18.550Z,65.3
2023-02-22T14:32:34.670Z,65.4
2023-02-22T14:33:51.775Z,65.5
2023-02-22T14:35:08.879Z,65
2023-02-22T14:36:25.984Z,64.1
2023-02-22T14:37:43.089Z,63.2
2023-02-22T14:39:00.193Z,62.9
2023-02-22T14:40:17.298Z,62.4
2023-02-22T14:41:33.423Z,61.6
2023-02-22T14:42:49.544Z,60.3
2023-02-22T14:44:06.648Z,61.2
2023-02-22T14:45:23.753Z,60
2023-02-22T14:46:40.857Z,59.4
2023-02-22T14:47:56.983Z,59.3
2023-02-22T14:49:13.104Z,59.4
2023-02-22T14:50:30.208Z,59.5
2023-02-22T14:51:47.313Z,59.5
2023-02-22T14:53:04.418Z,59.2
2023-02-22T14:54:21.522Z,59.3
2023-02-22T14:55:38.627Z,59.8
2023-02-22T14:56:55.731Z,59.4
2023-02-22T14:58:12.836Z,59.2
2023-02-22T14:59:29.940Z,59.2
2023-02-22T15:00:47.045Z,59.8
2023-02-22T15:02:04.149Z,58.8
2023-02-22T15:03:21.254Z,59.1
2023-02-22T15:04:38.358Z,59
2023-02-22T15:05:54.479Z,59.5
2023-02-22T15:07:11.583Z,58.9
2023-02-22T15:08:28.688Z,59.3
2023-02-22T15:09:45.792Z,59.1
2023-02-22T15:11:02.897Z,59.2
2023-02-22T15:12:20.001Z,59.6
2023-02-22T15:13:37.105Z,59.8
2023-02-22T15:14:53.231Z,59.9
2023-02-22T15:16:09.352Z,60
2023-02-22T15:17:26.457Z,60.2
2023-02-22T15:18:42.582Z,60.3
2023-02-22T15:19:58.703Z,60.3
2023-02-22T15:21:15.807Z,60.3
2023-02-22T15:22:32.911Z,60.3
2023-02-22T15:23:50.016Z,60.3
2023-02-22T15:25:07.120Z,60.3
2023-02-22T15:26:24.224Z,60.6
2023-02-22T15:27:41.329Z,60.8
2023-02-22T15:28:58.433Z,60.9
2023-02-22T15:30:15.538Z,60.9
2023-02-22T15:31:32.642Z,60.9
2023-02-22T15:32:49.746Z,61.1
2023-02-22T15:34:06.850Z,61.4
2023-02-22T15:35:23.954Z,61.6
2023-02-22T15:36:40.075Z,61.4
2023-02-22T15:37:57.179Z,61.4
2023-02-22T15:39:14.283Z,61.4
2023-02-22T15:40:31.387Z,61.5
2023-02-22T15:41:48.491Z,62
2023-02-22T15:43:05.596Z,61.9
2023-02-22T15:44:21.716Z,61.9
2023-02-22T15:45:37.841Z,62.1
2023-02-22T15:46:53.962Z,62.2
2023-02-22T15:48:11.066Z,62.1
2023-02-22T15:49:28.170Z,62.4
2023-02-22T15:50:44.295Z,62.5
2023-02-22T15:52:00.415Z,62.3
2023-02-22T15:53:17.520Z,62.5
2023-02-22T15:54:34.624Z,62.5
2023-02-22T15:55:51.728Z,62.3
2023-02-22T15:57:08.832Z,62.8
2023-02-22T15:58:25.936Z,62.4
2023-02-22T15:59:43.040Z,62.6
2023-02-22T16:01:00.144Z,62.7
2023-02-22T16:02:17.248Z,62.7
2023-02-22T16:03:34.352Z,62.7
2023-02-22T16:04:51.457Z,62.6
2023-02-22T16:06:08.561Z,62.7
2023-02-22T16:07:25.665Z,62.9
2023-02-22T16:08:41.785Z,63
2023-02-22T16:09:58.890Z,63.1
2023-02-22T16:11:15.994Z,63.3
2023-02-22T16:12:33.098Z,63.3
2023-02-22T16:13:50.202Z,63.6
2023-02-22T16:15:07.306Z,63.5
2023-02-22T16:16:24.410Z,63.6
2023-02-22T16:17:40.536Z,63.5
2023-02-22T16:18:56.656Z,63.9
2023-02-22T16:20:12.782Z,64.2
2023-02-22T16:21:28.902Z,64.2
2023-02-22T16:22:46.006Z,64.2
2023-02-22T16:24:03.110Z,65.6
2023-02-22T16:25:20.215Z,66.8
2023-02-22T16:26:37.319Z,67.2
2023-02-22T16:27:54.423Z,67.6
2023-02-22T16:29:11.527Z,68.1
2023-02-22T16:30:28.631Z,68.5
2023-02-22T16:31:45.736Z,69.2
2023-02-22T16:33:02.841Z,69.6
2023-02-22T16:34:19.946Z,70
2023-02-22T16:35:37.051Z,70.2
2023-02-22T16:36:54.155Z,70.5
2023-02-22T16:38:10.276Z,70.6
2023-02-22T16:39:27.381Z,70.8
2023-02-22T16:40:44.486Z,71
2023-02-22T16:42:01.590Z,71.3
2023-02-22T16:43:18.695Z,71.6
2023-02-22T16:44:35.800Z,72
2023-02-22T16:45:52.904Z,71.7
2023-02-22T16:47:09.031Z,72
2023-02-22T16:48:25.151Z,72.2
2023-02-22T16:49:41.277Z,72.3
2023-02-22T16:50:57.398Z,72.2
2023-02-22T16:52:14.503Z,72
2023-02-22T16:53:31.608Z,72
2023-02-22T16:54:48.713Z,72.1
2023-02-22T16:56:05.817Z,72.2
2023-02-22T16:57:22.922Z,72.6
2023-02-22T16:58:40.027Z,72.5
2023-02-22T16:59:57.132Z,72.8
2023-02-22T17:01:14.236Z,72.8
2023-02-22T17:02:31.341Z,73
2023-02-22T17:03:48.446Z,73.3
2023-02-22T17:05:05.550Z,73.3
2023-02-22T17:06:22.655Z,73.7
2023-02-22T17:07:38.775Z,73.6
2023-02-22T17:08:55.880Z,73.9
2023-02-22T17:10:12.985Z,74.4
2023-02-22T17:11:30.089Z,74.4
2023-02-22T17:12:47.194Z,74.4
2023-02-22T17:14:04.298Z,74.3